Terminal Aerodrome Forecast
Issued by NWS Wichita, KS

Home | Current Version | Previous Version | Graphics & Text | Print | Product List | Glossary On
Versions: 1 2 3 4 5 6 7 8 9 10 11 12 13 14 15 16 17
000
FTUS43 KICT 290900 AAB
TAFICT
TAF AMD
KICT 290942Z 2910/3006 27006KT P6SM BKN090
     FM291800 21014KT P6SM OVC100
     FM300000 16012KT P6SM OVC100=

USA.gov is the U.S. government's official web portal to all federal, state and local government web resources and services.